createdAt,value
2022-09-25T00:05:39.325Z,10.67
2022-09-25T00:20:49.487Z,10.13
2022-09-25T00:35:53.927Z,9.47
2022-09-25T00:50:59.229Z,8.03
2022-09-25T01:06:03.954Z,8.30
2022-09-25T01:21:26.522Z,9.00
2022-09-25T01:36:34.462Z,8.47
2022-09-25T01:51:43.200Z,8.57
2022-09-25T02:06:49.978Z,9.40
2022-09-25T02:22:31.603Z,8.20
2022-09-25T02:37:51.668Z,8.47
2022-09-25T02:53:12.757Z,7.87
2022-09-25T03:08:42.510Z,9.23
2022-09-25T03:23:49.374Z,8.50
2022-09-25T03:39:00.726Z,9.33
2022-09-25T03:54:19.685Z,9.43
2022-09-25T04:09:26.458Z,9.17
2022-09-25T04:24:59.050Z,9.60
2022-09-25T04:40:04.280Z,9.40
2022-09-25T04:55:21.061Z,9.93
2022-09-25T05:10:32.255Z,12.43
2022-09-25T05:25:36.265Z,11.37
2022-09-25T05:40:43.997Z,11.50
2022-09-25T05:55:51.828Z,11.80
2022-09-25T06:10:55.684Z,11.80
2022-09-25T06:26:04.082Z,9.10
2022-09-25T06:41:07.422Z,9.30
2022-09-25T06:56:10.901Z,7.70
2022-09-25T07:11:16.979Z,6.53
2022-09-25T07:26:23.148Z,7.47
2022-09-25T07:41:29.496Z,8.67
2022-09-25T07:56:36.217Z,8.90
2022-09-25T08:11:46.387Z,9.13
2022-09-25T08:26:51.377Z,9.20
2022-09-25T08:41:56.337Z,8.60
2022-09-25T08:57:02.384Z,7.23
2022-09-25T09:12:05.799Z,7.83
2022-09-25T09:27:28.868Z,7.43
2022-09-25T09:42:43.289Z,7.40
2022-09-25T09:57:49.764Z,6.60
2022-09-25T10:12:55.130Z,5.63
2022-09-25T10:28:04.050Z,6.20
2022-09-25T10:43:07.845Z,6.17
2022-09-25T10:58:30.505Z,5.53
2022-09-25T11:13:55.490Z,4.90
2022-09-25T11:29:14.297Z,5.23
2022-09-25T11:45:00.795Z,5.47
2022-09-25T12:00:05.448Z,5.63
2022-09-25T12:15:12.673Z,5.13
2022-09-25T12:30:21.760Z,5.43
2022-09-25T12:45:43.846Z,5.13
2022-09-25T13:00:49.304Z,4.63
2022-09-25T13:15:55.403Z,4.60
2022-09-25T13:31:16.153Z,3.93
2022-09-25T13:46:24.441Z,4.27
2022-09-25T14:01:48.779Z,4.40
2022-09-25T14:16:54.432Z,3.90
2022-09-25T14:32:36.528Z,4.00
2022-09-25T14:47:45.614Z,4.70
2022-09-25T15:02:51.106Z,4.37
2022-09-25T15:17:56.564Z,4.20
2022-09-25T15:33:01.688Z,4.37
2022-09-25T15:48:22.357Z,4.03
2022-09-25T16:03:45.818Z,4.03
2022-09-25T16:18:59.266Z,3.90
2022-09-25T16:34:04.733Z,4.00
2022-09-25T16:49:14.886Z,4.10
2022-09-25T17:04:23.394Z,4.50
2022-09-25T17:19:30.366Z,4.70
2022-09-25T17:34:36.844Z,4.80
2022-09-25T17:49:43.111Z,4.90
2022-09-25T18:04:47.621Z,6.07
2022-09-25T18:20:10.663Z,4.80
2022-09-25T18:35:16.064Z,5.63
2022-09-25T18:50:21.073Z,5.67
2022-09-25T19:05:26.717Z,7.90
2022-09-25T19:20:31.185Z,7.33
2022-09-25T19:35:35.008Z,6.23
2022-09-25T19:50:41.779Z,7.20
2022-09-25T20:05:50.636Z,6.90
2022-09-25T20:20:54.486Z,6.40
2022-09-25T20:36:03.676Z,5.50
2022-09-25T20:51:11.149Z,6.23
2022-09-25T21:06:19.251Z,6.50
2022-09-25T21:21:24.239Z,6.10
2022-09-25T21:36:28.840Z,8.00
2022-09-25T21:51:35.903Z,6.50
2022-09-25T22:06:41.251Z,6.53
2022-09-25T22:21:45.508Z,5.33
2022-09-25T22:36:50.222Z,5.63
2022-09-25T22:51:54.902Z,7.40
2022-09-25T23:07:00.419Z,6.10
2022-09-25T23:22:03.552Z,7.30
2022-09-25T23:37:07.415Z,6.73
2022-09-25T23:52:10.676Z,7.67
